x

Western Caribbean - 195 Nm Wsw Of Negril Jamiaca (42057) Wave Buoy

10:50am - Tue 26th May 2015 All times are UTC.

  • Sig Wave height 3.9ft
  • Swell Direction
  • Peak Period 8s
  • Average Period 5s
  • Wind
    16mph, 18mph gusts
  • Sea Temp 82°f
  • 空気 Temp 82°f
  • Sea Pressure 1014.3mb

More Historic Weather Station data

Upgrade to MSW Pro to gain access to the past 30 days of data for over 8000 Wavebouys and Weather Stations around the globe.

Join Pro

Comparision Forecast

View Surf forecast
   
Tue 05/26 10:50am 4ft 8s 5s 16 18 mph 1014.3mb 82f 82f
9:50am 4ft 8s 5s 16 18 mph 1013.9mb 82f 82f
8:50am 4.5ft 8s 5s 18 20 mph 1013.8mb 82f 82f
7:50am 4.5ft 8s 5s 16 18 mph 1013.8mb 82f 82f
6:50am 4.5ft 8s 5s 18 20 mph 1014.1mb 82f 82f
5:50am 5ft 8s 5s 16 18 mph 1014.8mb 82f 82f
4:50am 5ft 8s 5s 16 18 mph 1015.5mb 82f 82f
3:50am 4.5ft 8s 5s 16 18 mph 1015.9mb 82f 82f
2:50am 5ft 8s 5s 16 20 mph 1015.6mb 82f 82f
1:50am 5ft 8s 5s 16 18 mph 1015.1mb 82f 82f
12:50am 5ft 6s 5s 16 18 mph 1014.7mb 82f 82f
Mon 05/25 11:50pm 5ft 6s 5s 18 20 mph 1014.3mb 82f 82f
10:50pm 5ft 8s 5s 18 20 mph 1014mb 82f 82f
9:50pm 5ft 6s 5s 16 18 mph 1013.7mb 82f 82f
8:50pm 5ft 6s 5s 16 18 mph 1013.7mb 82f 82f
7:50pm 5.5ft 9s 5s 16 18 mph 1014mb 82f 82f
6:50pm 5ft 8s 5s 18 20 mph 1014.4mb 82f 82f
5:50pm 5ft 7s 5s 18 20 mph 1014.9mb 82f 82f
4:50pm 5.5ft 8s 5s 16 18 mph 1015.7mb 82f 82f
3:50pm 5.5ft 9s 6s 16 20 mph 1016mb 82f 82f
2:50pm 5ft 8s 5s 18 20 mph 1016.1mb 82f 82f
1:50pm 5ft 9s 6s 16 20 mph 1016.1mb 82f 82f
12:50pm 5ft 8s 6s 18 20 mph 1015.4mb 82f 82f
11:50am 5ft 9s 5s 18 22 mph 1014.8mb 82f 82f
10:50am 5ft 8s 5s 16 20 mph 1014.1mb 82f 82f
9:50am 4.5ft 8s 5s 16 18 mph 1014.1mb 82f 82f
8:50am 4.5ft 7s 5s 16 20 mph 1014.1mb 82f 82f
7:50am 5ft 9s 5s 18 20 mph 1014.3mb 82f 82f
6:50am 4.5ft 8s 6s 16 18 mph 1014.5mb 82f 82f
5:50am 4.5ft 8s 5s 13 16 mph 1014.8mb 82f 82f
4:50am 4ft 8s 5s 13 16 mph 1015.4mb 82f 82f
3:50am 4.5ft 8s 5s 13 16 mph 1015.8mb 82f 82f
2:50am 4.5ft 6s 5s 16 20 mph 1015.3mb 82f 82f
1:50am 5ft 8s 5s 16 20 mph 1014.9mb 82f 82f
12:50am 4.5ft 8s 5s 16 18 mph 1014.5mb 82f 82f
Sun 05/24 11:50pm 5ft 8s 5s 13 18 mph 1014mb 82f 82f
10:50pm 5ft 8s 5s 13 16 mph 1013.5mb 82f 82f
9:50pm 5ft 8s 5s 16 18 mph 1013.7mb 82f 83f
8:50pm 5.5ft 9s 5s 18 20 mph 1014mb 82f 83f
7:50pm 6ft 8s 5s 18 20 mph 1014.2mb 82f 83f
6:50pm 5ft 9s 5s 18 20 mph 1014.6mb 82f 83f
5:50pm 5ft 7s 5s 18 20 mph 1015.1mb 82f 82f
4:50pm 5ft 8s 5s 16 20 mph 1015.6mb 82f 82f
3:50pm 5.5ft 6s 5s 18 20 mph 1016mb 82f 83f
2:50pm 5ft 8s 5s 18 20 mph 1015.9mb 82f 82f
1:50pm 5ft 7s 5s 18 20 mph 1015.6mb 82f 82f
12:50pm 5ft 9s 5s 18 20 mph 1015.2mb 82f 82f
11:50am 5ft 6s 5s 18 20 mph 1015mb 82f 82f
10:50am 5ft 6s 5s 18 22 mph 1014.6mb 82f 82f
9:50am 5ft 8s 5s 18 20 mph 1014.6mb 82f 82f
8:50am 4.5ft 7s 5s 16 20 mph 1014.2mb 82f 82f
7:50am 4.5ft 7s 5s 18 20 mph 1014.4mb 82f 82f
6:50am 4.5ft 6s 5s 18 22 mph 1014.7mb 82f 82f
5:50am 4.5ft 7s 5s 16 20 mph 1015.4mb 82f 82f
4:50am 4.5ft 6s 5s 18 20 mph 1016.2mb 82f 82f
3:50am 4.5ft 6s 5s 16 20 mph 1016.2mb 82f 82f
2:50am 4.5ft 5s 5s 16 20 mph 1016mb 82f 82f
1:50am 5ft 6s 5s 16 18 mph 1015.5mb 82f 82f
12:50am 4.5ft 6s 5s 13 16 mph 1015.2mb 82f 82f
Sat 05/23 11:50pm 5ft 6s 5s 9 11 mph 1014.9mb 82f 82f
10:50pm 5ft 6s 5s 11 13 mph 1014.6mb 82f 82f
9:50pm 4.5ft 6s 5s 13 16 mph 1014.5mb 82f 82f
8:50pm 4.5ft 5s 5s 16 18 mph 1014.8mb 82f 83f
7:50pm 4.5ft 6s 5s 18 20 mph 1015.4mb 82f 83f
6:50pm 4ft 6s 5s 18 20 mph 1016.4mb 82f 83f
5:50pm 4ft 6s 5s 18 20 mph 1016.8mb 82f 83f
4:50pm 4ft 6s 5s 16 20 mph 1017.3mb 82f 82f
3:50pm 3.5ft 5s 4s 16 20 mph 1017.3mb 82f 83f
2:50pm 3.5ft 6s 4s 18 20 mph 1017mb 82f 83f
1:50pm 3.5ft 5s 4s 16 18 mph 1016.9mb 82f 83f
12:50pm 3.5ft 5s 4s 16 20 mph 1016.5mb 82f 82f
11:50am 3.5ft 5s 4s 18 20 mph 1016.2mb 82f 82f
10:50am 3.5ft 5s 4s 20 27 mph 1015.5mb 82f 79f
9:50am 3.5ft 5s 4s 9 11 mph 1015.6mb 82f 81f
8:50am 3.5ft 5s 4s 9 11 mph 1015.3mb 82f 80f
7:50am 3.5ft 5s 4s 22 27 mph 1014.9mb 82f 80f
6:50am 3.5ft 5s 4s 16 18 mph 1015.7mb 82f 82f
5:50am 3ft 5s 4s 16 18 mph 1015.9mb 82f 82f
4:50am 3.5ft 5s 4s 18 20 mph 1016.5mb 82f 82f
3:50am 3.5ft 5s 4s 16 20 mph 1016.7mb 82f 82f
2:50am 3.5ft 5s 4s 13 18 mph 1016.7mb 82f 82f
1:50am 3.5ft 5s 4s 16 18 mph 1016mb 82f 82f
12:50am 3ft 4s 4s 16 20 mph 1015.7mb 82f 82f
Fri 05/22 11:50pm 3ft 5s 4s 16 20 mph 1015.2mb 82f 82f
10:50pm 2.5ft 5s 4s 13 16 mph 1014.8mb 82f 82f
9:50pm 2.5ft 5s 4s 16 18 mph 1014.7mb 82f 82f
8:50pm 3ft 4s 4s 11 13 mph 1014.6mb 82f 82f
7:50pm 3ft 5s 4s 13 16 mph 1015mb 82f 82f
6:50pm 3ft 4s 4s 13 16 mph 1015.6mb 82f 81f
5:50pm 2.5ft 7s 4s 13 20 mph 1015.8mb 82f 82f
4:50pm 2.5ft 7s 4s 11 13 mph 1016.4mb 82f 82f
3:50pm 2.5ft 7s 4s 11 13 mph 1016.5mb 82f 82f
2:50pm 2.5ft 5s 4s 20 25 mph 1016.3mb 82f 80f
1:50pm 2.5ft 6s 4s 11 13 mph 1016.2mb 82f 82f
12:50pm 2.5ft 6s 4s 13 16 mph 1015.9mb 82f 82f